createdAt,value
2019-03-29T00:01:06.507Z,4.77
2019-03-29T00:03:36.902Z,5.07
2019-03-29T00:06:07.366Z,4.87
2019-03-29T00:08:38.668Z,4.40
2019-03-29T00:11:08.945Z,4.03
2019-03-29T00:13:39.308Z,4.13
2019-03-29T00:16:09.588Z,5.23
2019-03-29T00:18:39.914Z,4.47
2019-03-29T00:21:10.294Z,4.27
2019-03-29T00:23:40.636Z,4.83
2019-03-29T00:26:10.985Z,4.93
2019-03-29T00:28:41.348Z,4.20
2019-03-29T00:31:11.616Z,4.43
2019-03-29T00:33:41.908Z,5.33
2019-03-29T00:36:12.286Z,4.70
2019-03-29T00:38:42.674Z,5.63
2019-03-29T00:41:13.021Z,4.90
2019-03-29T00:43:43.624Z,5.90
2019-03-29T00:46:14.056Z,5.53
2019-03-29T00:48:44.353Z,5.37
2019-03-29T00:51:14.728Z,5.93
2019-03-29T00:53:45.016Z,5.17
2019-03-29T00:56:15.361Z,5.77
2019-03-29T00:58:46.000Z,6.03
2019-03-29T01:01:16.979Z,5.70
2019-03-29T01:03:47.260Z,5.97
2019-03-29T01:06:17.528Z,6.27
2019-03-29T01:08:48.169Z,6.73
2019-03-29T01:11:18.743Z,6.83
2019-03-29T01:13:49.090Z,6.63
2019-03-29T01:16:19.520Z,5.97
2019-03-29T01:18:50.772Z,6.07
2019-03-29T01:21:21.088Z,6.20
2019-03-29T01:23:51.356Z,5.83
2019-03-29T01:26:22.609Z,6.57
2019-03-29T01:28:52.892Z,5.90
2019-03-29T01:31:23.203Z,5.73
2019-03-29T01:33:53.553Z,5.57
2019-03-29T01:36:24.800Z,5.27
2019-03-29T01:38:55.118Z,7.10
2019-03-29T01:41:27.014Z,6.03
2019-03-29T01:43:57.649Z,6.53
2019-03-29T01:46:28.300Z,5.63
2019-03-29T01:48:58.620Z,6.33
2019-03-29T01:51:28.889Z,5.97
2019-03-29T01:53:59.195Z,6.80
2019-03-29T01:56:30.124Z,5.83
2019-03-29T01:59:00.780Z,6.17
2019-03-29T02:01:31.043Z,6.03
2019-03-29T02:04:01.348Z,6.20
2019-03-29T02:06:31.623Z,5.67
2019-03-29T02:09:02.232Z,6.13
2019-03-29T02:11:33.856Z,6.10
2019-03-29T02:14:04.271Z,5.90
2019-03-29T02:16:34.557Z,6.17
2019-03-29T02:19:05.256Z,6.00
2019-03-29T02:21:36.335Z,6.23
2019-03-29T02:24:16.548Z,5.70
2019-03-29T02:26:46.818Z,6.27
2019-03-29T02:29:17.105Z,5.43
2019-03-29T02:31:47.527Z,5.73
2019-03-29T02:34:17.845Z,5.60
2019-03-29T02:36:48.256Z,6.20
2019-03-29T02:39:18.609Z,5.90
2019-03-29T02:41:48.893Z,5.70
2019-03-29T02:44:19.161Z,5.57
2019-03-29T02:46:49.919Z,6.90
2019-03-29T02:49:20.205Z,7.03
2019-03-29T02:51:50.557Z,6.20
2019-03-29T02:54:21.314Z,5.80
2019-03-29T02:56:51.691Z,6.47
2019-03-29T02:59:22.090Z,5.43
2019-03-29T03:01:52.486Z,6.80
2019-03-29T03:04:23.152Z,6.17
2019-03-29T03:06:53.460Z,6.77
2019-03-29T03:09:23.806Z,6.60
2019-03-29T03:11:54.186Z,6.90
2019-03-29T03:14:24.840Z,5.83
2019-03-29T03:16:57.122Z,6.03
2019-03-29T03:19:27.412Z,7.13
2019-03-29T03:21:57.778Z,6.40
2019-03-29T03:24:55.198Z,7.70
2019-03-29T03:27:27.001Z,8.37
2019-03-29T03:29:57.366Z,6.83
2019-03-29T03:32:27.954Z,7.13
2019-03-29T03:34:58.307Z,6.63
2019-03-29T03:37:28.997Z,8.47
2019-03-29T03:39:59.260Z,7.90
2019-03-29T03:42:29.705Z,7.53
2019-03-29T03:44:59.987Z,8.30
2019-03-29T03:47:30.701Z,7.93
2019-03-29T03:50:02.884Z,7.53
2019-03-29T03:52:33.484Z,8.07
2019-03-29T03:55:05.887Z,7.03
2019-03-29T03:57:38.417Z,6.60
2019-03-29T04:00:10.115Z,7.33
2019-03-29T04:02:40.597Z,7.13
2019-03-29T04:05:11.169Z,8.17
2019-03-29T04:07:41.457Z,7.23
2019-03-29T04:10:11.810Z,6.73
2019-03-29T04:12:42.100Z,8.50
2019-03-29T04:15:12.603Z,8.33
2019-03-29T04:17:44.443Z,8.80
2019-03-29T04:20:16.088Z,9.63
2019-03-29T04:22:48.279Z,8.17
2019-03-29T04:25:19.897Z,9.90
2019-03-29T04:27:50.189Z,9.37
2019-03-29T04:30:21.539Z,8.63
2019-03-29T04:32:51.897Z,9.90
2019-03-29T04:35:22.253Z,10.23
2019-03-29T04:37:52.539Z,8.77
2019-03-29T04:40:22.893Z,10.27
2019-03-29T04:42:53.189Z,10.03
2019-03-29T04:45:23.473Z,9.93
2019-03-29T04:47:54.907Z,8.27
2019-03-29T04:50:25.673Z,8.37
2019-03-29T04:52:56.044Z,11.23
2019-03-29T04:55:26.341Z,9.70
2019-03-29T04:57:56.701Z,10.23
2019-03-29T05:00:27.397Z,9.33
2019-03-29T05:02:59.405Z,9.93
2019-03-29T05:05:30.573Z,8.20
2019-03-29T05:08:02.255Z,10.07
2019-03-29T05:10:34.109Z,8.90
2019-03-29T05:13:06.462Z,8.73
2019-03-29T05:15:36.812Z,9.07
2019-03-29T05:18:07.181Z,8.97
2019-03-29T05:20:37.532Z,9.47
2019-03-29T05:23:07.893Z,9.43
2019-03-29T05:25:38.256Z,9.17
2019-03-29T05:28:08.826Z,9.57
2019-03-29T05:30:39.189Z,9.07
2019-03-29T05:33:09.482Z,9.60
2019-03-29T05:35:39.836Z,9.83
2019-03-29T05:38:10.145Z,12.03
2019-03-29T05:40:41.057Z,11.93
2019-03-29T05:43:11.335Z,10.47
2019-03-29T05:45:41.905Z,13.07
2019-03-29T05:48:12.334Z,13.67
2019-03-29T05:50:42.783Z,11.73
2019-03-29T05:53:13.230Z,10.10
2019-03-29T05:55:43.592Z,8.80
2019-03-29T05:58:13.886Z,7.60
2019-03-29T06:00:44.329Z,8.40
2019-03-29T06:03:14.692Z,8.13
2019-03-29T06:05:44.981Z,8.10
2019-03-29T06:08:15.957Z,7.87
2019-03-29T06:10:49.294Z,8.13
2019-03-29T06:13:19.449Z,7.70
2019-03-29T06:15:49.797Z,8.30
2019-03-29T06:18:20.246Z,8.20
2019-03-29T06:20:50.655Z,8.50
2019-03-29T06:23:22.023Z,9.00
2019-03-29T06:25:52.314Z,8.10
2019-03-29T06:28:22.682Z,9.30
2019-03-29T06:30:53.376Z,9.47
2019-03-29T06:33:23.761Z,8.47
2019-03-29T06:35:56.206Z,9.77
2019-03-29T06:38:27.457Z,8.30
2019-03-29T06:41:03.292Z,8.37
2019-03-29T06:43:30.316Z,8.43
2019-03-29T06:46:01.064Z,8.93
2019-03-29T06:48:31.424Z,9.00
2019-03-29T06:51:03.556Z,8.70
2019-03-29T06:53:34.565Z,9.03
2019-03-29T06:56:08.195Z,9.27
2019-03-29T06:58:40.384Z,9.13
2019-03-29T07:01:10.769Z,9.93
2019-03-29T07:03:41.059Z,9.77
2019-03-29T07:06:11.339Z,9.70
2019-03-29T07:08:41.733Z,9.60
2019-03-29T07:11:17.700Z,9.17
2019-03-29T07:13:56.665Z,9.87
2019-03-29T07:16:16.262Z,9.57
2019-03-29T07:18:49.043Z,9.77
2019-03-29T07:21:22.307Z,9.97
2019-03-29T07:23:53.153Z,10.03
2019-03-29T07:26:23.439Z,9.73
2019-03-29T07:28:53.815Z,10.20
2019-03-29T07:31:24.187Z,9.70
2019-03-29T07:33:54.583Z,9.17
2019-03-29T07:36:24.973Z,9.07
2019-03-29T07:38:57.329Z,9.33
2019-03-29T07:41:32.165Z,10.20
2019-03-29T07:43:59.980Z,9.67
2019-03-29T07:46:30.362Z,9.03
2019-03-29T07:49:00.656Z,9.07
2019-03-29T07:51:31.053Z,8.73
2019-03-29T07:54:01.329Z,8.87
2019-03-29T07:56:31.708Z,8.60
2019-03-29T07:59:02.068Z,9.50
2019-03-29T08:01:33.444Z,9.10
2019-03-29T08:04:03.993Z,8.00
2019-03-29T08:06:34.279Z,8.27
2019-03-29T08:09:06.370Z,8.63
2019-03-29T08:11:46.329Z,8.90
2019-03-29T08:14:10.500Z,9.30
2019-03-29T08:16:40.875Z,8.20
2019-03-29T08:19:11.538Z,8.60
2019-03-29T08:21:42.309Z,8.90
2019-03-29T08:24:12.806Z,8.47
2019-03-29T08:26:43.205Z,9.10
2019-03-29T08:29:14.452Z,8.07
2019-03-29T08:31:45.047Z,8.07
2019-03-29T08:34:15.341Z,9.17
2019-03-29T08:36:45.641Z,8.93
2019-03-29T08:39:27.387Z,7.43
2019-03-29T08:41:59.563Z,8.63
2019-03-29T08:44:20.297Z,8.10
2019-03-29T08:46:51.056Z,7.83
2019-03-29T08:49:21.892Z,8.23
2019-03-29T08:51:52.546Z,7.77
2019-03-29T08:54:23.107Z,8.47
2019-03-29T08:56:53.413Z,8.03
2019-03-29T08:59:23.707Z,7.40
2019-03-29T09:01:54.153Z,7.00
2019-03-29T09:04:24.442Z,8.23
2019-03-29T09:06:54.741Z,7.40
2019-03-29T09:09:26.489Z,7.57
2019-03-29T09:11:56.940Z,6.93
2019-03-29T09:14:31.294Z,7.70
2019-03-29T09:17:00.663Z,7.87
2019-03-29T09:19:31.032Z,7.77
2019-03-29T09:22:01.442Z,7.07
2019-03-29T09:24:31.804Z,7.03
2019-03-29T09:27:02.260Z,8.13
2019-03-29T09:29:32.721Z,7.43
2019-03-29T09:32:03.086Z,8.03
2019-03-29T09:34:33.367Z,7.20
2019-03-29T09:37:03.750Z,7.17
2019-03-29T09:39:34.044Z,7.73
2019-03-29T09:42:04.716Z,7.40
2019-03-29T09:44:35.081Z,8.80
2019-03-29T09:47:05.493Z,8.10
2019-03-29T09:49:36.111Z,7.87
2019-03-29T09:52:06.488Z,7.90
2019-03-29T09:54:36.845Z,7.70
2019-03-29T09:57:09.888Z,6.97
2019-03-29T09:59:39.188Z,6.40
2019-03-29T10:02:09.563Z,6.97
2019-03-29T10:04:39.837Z,6.80
2019-03-29T10:07:10.120Z,6.40
2019-03-29T10:09:40.415Z,7.30
2019-03-29T10:12:10.700Z,7.13
2019-03-29T10:14:40.976Z,7.57
2019-03-29T10:17:11.968Z,6.87
2019-03-29T10:19:42.336Z,6.30
2019-03-29T10:22:12.638Z,6.27
2019-03-29T10:24:42.912Z,6.13
2019-03-29T10:27:13.210Z,5.93
2019-03-29T10:29:43.571Z,6.27
2019-03-29T10:32:14.281Z,6.67
2019-03-29T10:34:44.649Z,6.07
2019-03-29T10:37:15.089Z,6.77
2019-03-29T10:39:45.445Z,6.07
2019-03-29T10:42:15.892Z,5.87
2019-03-29T10:44:49.224Z,6.40
2019-03-29T10:47:18.325Z,6.37
2019-03-29T10:49:48.609Z,6.10
2019-03-29T10:52:18.973Z,5.87
2019-03-29T10:54:50.066Z,5.80
2019-03-29T10:57:20.585Z,6.23
2019-03-29T10:59:50.871Z,5.93
2019-03-29T11:02:21.857Z,5.70
2019-03-29T11:04:52.145Z,6.30
2019-03-29T11:07:22.580Z,6.47
2019-03-29T11:09:52.871Z,6.10
2019-03-29T11:12:23.164Z,6.23
2019-03-29T11:14:53.525Z,6.83
2019-03-29T11:17:23.823Z,6.80
2019-03-29T11:19:54.269Z,6.30
2019-03-29T11:22:24.629Z,6.23
2019-03-29T11:24:54.909Z,5.97
2019-03-29T11:27:25.195Z,6.00
2019-03-29T11:29:55.478Z,6.47
2019-03-29T11:32:25.772Z,5.73
2019-03-29T11:34:56.052Z,6.00
2019-03-29T11:37:26.341Z,5.60
2019-03-29T11:39:56.618Z,6.07
2019-03-29T11:42:26.904Z,5.83
2019-03-29T11:44:58.070Z,5.17
2019-03-29T11:47:28.443Z,5.67
2019-03-29T11:49:59.153Z,6.40
2019-03-29T11:52:29.456Z,6.10
2019-03-29T11:54:59.742Z,5.03
2019-03-29T11:57:30.070Z,6.77
2019-03-29T12:00:00.424Z,6.70
2019-03-29T12:02:31.823Z,6.60
2019-03-29T12:05:03.412Z,6.50
2019-03-29T12:07:33.873Z,6.93
2019-03-29T12:10:04.825Z,6.47
2019-03-29T12:12:35.396Z,6.37
2019-03-29T12:15:07.104Z,6.47
2019-03-29T12:17:37.568Z,6.50
2019-03-29T12:20:08.316Z,6.10
2019-03-29T12:22:38.687Z,6.67
2019-03-29T12:25:09.264Z,6.87
2019-03-29T12:27:39.557Z,6.70
2019-03-29T12:30:10.797Z,7.13
2019-03-29T12:32:41.149Z,6.23
2019-03-29T12:35:11.544Z,6.97
2019-03-29T12:37:41.895Z,6.67
2019-03-29T12:40:18.941Z,6.77
2019-03-29T12:42:49.723Z,6.10
2019-03-29T12:45:20.178Z,6.20
2019-03-29T12:47:52.036Z,6.80
2019-03-29T12:50:22.707Z,6.93
2019-03-29T12:52:52.988Z,6.77
2019-03-29T12:55:23.499Z,6.43
2019-03-29T12:57:54.180Z,6.80
2019-03-29T13:00:25.532Z,7.00
2019-03-29T13:03:07.323Z,7.00
2019-03-29T13:05:38.337Z,7.27
2019-03-29T13:08:09.904Z,7.10
2019-03-29T13:10:42.498Z,6.87
2019-03-29T13:13:12.603Z,7.13
2019-03-29T13:15:43.561Z,6.77
2019-03-29T13:18:14.089Z,7.03
2019-03-29T13:20:47.774Z,6.67
2019-03-29T13:23:18.218Z,6.60
2019-03-29T13:25:48.890Z,7.17
2019-03-29T13:28:19.536Z,6.63
2019-03-29T13:30:51.504Z,6.63
2019-03-29T13:33:22.075Z,7.13
2019-03-29T13:35:52.765Z,6.93
2019-03-29T13:38:23.238Z,6.93
2019-03-29T13:40:53.914Z,7.33
2019-03-29T13:43:24.287Z,7.20
2019-03-29T13:45:55.244Z,7.07
2019-03-29T13:48:25.813Z,7.20
2019-03-29T13:50:59.226Z,6.77
2019-03-29T13:53:29.643Z,6.80
2019-03-29T13:56:00.599Z,6.87
2019-03-29T13:58:31.251Z,7.10
2019-03-29T14:01:01.537Z,7.70
2019-03-29T14:03:31.933Z,7.37
2019-03-29T14:06:02.377Z,7.80
2019-03-29T14:08:32.651Z,7.50
2019-03-29T14:11:03.200Z,7.10
2019-03-29T14:13:33.478Z,7.60
2019-03-29T14:16:03.858Z,7.33
2019-03-29T14:18:34.137Z,7.93
2019-03-29T14:21:04.581Z,7.70
2019-03-29T14:23:34.870Z,6.97
2019-03-29T14:26:05.318Z,7.23
2019-03-29T14:28:35.591Z,6.87
2019-03-29T14:31:06.041Z,7.33
2019-03-29T14:33:37.384Z,7.50
2019-03-29T14:36:07.675Z,7.17
2019-03-29T14:38:38.041Z,7.67
2019-03-29T14:41:08.333Z,7.97
2019-03-29T14:43:39.085Z,7.43
2019-03-29T14:46:09.455Z,6.67
2019-03-29T14:48:40.123Z,6.97
2019-03-29T14:51:10.533Z,6.53
2019-03-29T14:53:41.772Z,7.73
2019-03-29T14:56:12.308Z,7.00
2019-03-29T14:58:42.853Z,7.90
2019-03-29T15:01:13.521Z,7.57
2019-03-29T15:03:43.809Z,6.87
2019-03-29T15:06:14.340Z,8.00
2019-03-29T15:08:44.872Z,7.33
2019-03-29T15:11:22.119Z,7.70
2019-03-29T15:13:47.675Z,8.23
2019-03-29T15:16:18.671Z,7.03
2019-03-29T15:18:49.231Z,7.40
2019-03-29T15:21:19.613Z,7.63
2019-03-29T15:23:49.992Z,7.03
2019-03-29T15:26:20.490Z,7.27
2019-03-29T15:28:50.863Z,7.13
2019-03-29T15:31:21.161Z,7.80
2019-03-29T15:33:51.880Z,7.70
2019-03-29T15:36:22.180Z,7.20
2019-03-29T15:38:52.825Z,7.07
2019-03-29T15:41:23.220Z,7.47
2019-03-29T15:43:53.614Z,7.20
2019-03-29T15:46:23.929Z,7.97
2019-03-29T15:48:54.208Z,7.40
2019-03-29T15:51:24.712Z,7.50
2019-03-29T15:53:55.008Z,6.73
2019-03-29T15:56:25.434Z,7.17
2019-03-29T15:58:55.737Z,7.40
2019-03-29T16:01:26.045Z,6.80
2019-03-29T16:03:56.821Z,7.33
2019-03-29T16:06:27.156Z,7.27
2019-03-29T16:08:57.543Z,7.33
2019-03-29T16:11:27.835Z,7.33
2019-03-29T16:13:58.220Z,7.40
2019-03-29T16:16:28.673Z,7.97
2019-03-29T16:18:59.046Z,7.07
2019-03-29T16:21:29.423Z,7.87
2019-03-29T16:23:59.741Z,7.60
2019-03-29T16:26:30.117Z,6.60
2019-03-29T16:29:00.431Z,7.80
2019-03-29T16:31:40.985Z,7.47
2019-03-29T16:34:11.349Z,8.17
2019-03-29T16:36:41.833Z,6.80
2019-03-29T16:39:12.218Z,7.60
2019-03-29T16:41:42.576Z,6.97
2019-03-29T16:44:13.022Z,8.23
2019-03-29T16:46:43.384Z,7.03
2019-03-29T16:49:13.757Z,7.27
2019-03-29T16:51:44.216Z,7.20
2019-03-29T16:54:14.528Z,7.57
2019-03-29T16:56:45.296Z,6.63
2019-03-29T16:59:15.689Z,7.77
2019-03-29T17:01:47.211Z,7.03
2019-03-29T17:04:17.617Z,7.00
2019-03-29T17:06:48.003Z,6.93
2019-03-29T17:09:18.734Z,7.87
2019-03-29T17:11:49.064Z,7.33
2019-03-29T17:14:19.427Z,7.17
2019-03-29T17:16:52.796Z,7.27
2019-03-29T17:19:22.291Z,7.27
2019-03-29T17:21:52.692Z,7.13
2019-03-29T17:24:23.061Z,7.33
2019-03-29T17:26:53.433Z,7.00
2019-03-29T17:29:23.892Z,7.30
2019-03-29T17:31:54.198Z,6.47
2019-03-29T17:34:24.577Z,7.40
2019-03-29T17:36:55.021Z,8.07
2019-03-29T17:39:25.315Z,7.73
2019-03-29T17:41:55.773Z,13.03
2019-03-29T17:44:26.257Z,13.27
2019-03-29T17:46:56.794Z,11.33
2019-03-29T17:49:27.117Z,8.47
2019-03-29T17:51:58.473Z,8.70
2019-03-29T17:54:28.922Z,8.83
2019-03-29T17:56:59.405Z,7.53
2019-03-29T17:59:29.728Z,9.07
2019-03-29T18:02:09.170Z,7.93
2019-03-29T18:04:32.241Z,8.10
2019-03-29T18:07:24.801Z,8.90
2019-03-29T18:09:55.125Z,8.10
2019-03-29T18:12:25.777Z,7.60
2019-03-29T18:14:56.190Z,12.50
2019-03-29T18:17:26.812Z,17.30
2019-03-29T18:19:57.171Z,20.77
2019-03-29T18:22:27.942Z,17.57
2019-03-29T18:24:58.435Z,13.80
2019-03-29T18:27:29.201Z,13.30
2019-03-29T18:30:00.048Z,13.57
2019-03-29T18:32:31.726Z,13.17
2019-03-29T18:35:02.233Z,12.47
2019-03-29T18:37:33.541Z,11.40
2019-03-29T18:40:04.025Z,10.80
2019-03-29T18:42:34.376Z,10.93
2019-03-29T18:45:06.888Z,10.30
2019-03-29T18:47:37.172Z,10.87
2019-03-29T18:50:07.636Z,10.13
2019-03-29T18:52:38.741Z,10.50
2019-03-29T18:55:09.189Z,10.80
2019-03-29T18:57:39.639Z,10.60
2019-03-29T19:00:10.414Z,10.30
2019-03-29T19:02:40.926Z,10.30
2019-03-29T19:05:17.178Z,10.07
2019-03-29T19:07:47.533Z,10.57
2019-03-29T19:10:17.969Z,10.77
2019-03-29T19:12:48.348Z,9.20
2019-03-29T19:15:18.733Z,9.47
2019-03-29T19:17:49.245Z,11.97
2019-03-29T19:20:27.250Z,10.47
2019-03-29T19:22:52.369Z,12.57
2019-03-29T19:25:22.770Z,12.37
2019-03-29T19:27:53.497Z,13.17
2019-03-29T19:30:24.346Z,12.83
2019-03-29T19:32:54.713Z,12.77
2019-03-29T19:35:25.127Z,11.50
2019-03-29T19:37:55.639Z,11.93
2019-03-29T19:40:26.495Z,10.63
2019-03-29T19:42:57.299Z,11.00
2019-03-29T19:45:27.600Z,11.07
2019-03-29T19:47:57.913Z,11.17
2019-03-29T19:50:28.542Z,11.20
2019-03-29T19:52:58.849Z,12.23
2019-03-29T19:55:29.226Z,11.00
2019-03-29T19:57:59.700Z,11.27
2019-03-29T20:00:38.047Z,11.67
2019-03-29T20:03:08.938Z,10.93
2019-03-29T20:05:39.389Z,9.87
2019-03-29T20:08:09.840Z,8.60
2019-03-29T20:10:40.453Z,9.77
2019-03-29T20:13:10.860Z,9.03
2019-03-29T20:15:41.322Z,9.00
2019-03-29T20:18:11.751Z,8.37
2019-03-29T20:20:42.122Z,7.43
2019-03-29T20:23:13.520Z,7.77
2019-03-29T20:25:43.982Z,6.80
2019-03-29T20:28:14.417Z,7.87
2019-03-29T20:30:44.880Z,6.67
2019-03-29T20:33:15.236Z,7.60
2019-03-29T20:35:45.605Z,6.83
2019-03-29T20:38:16.023Z,8.20
2019-03-29T20:40:46.421Z,8.90
2019-03-29T20:43:17.236Z,7.50
2019-03-29T20:45:47.537Z,7.23
2019-03-29T20:48:17.829Z,8.33
2019-03-29T20:50:48.197Z,7.80
2019-03-29T20:53:18.552Z,7.30
2019-03-29T20:55:49.013Z,7.73
2019-03-29T20:58:19.279Z,7.47
2019-03-29T21:00:50.857Z,7.80
2019-03-29T21:03:21.208Z,8.13
2019-03-29T21:05:51.578Z,8.00
2019-03-29T21:08:21.877Z,7.90
2019-03-29T21:10:56.292Z,8.67
2019-03-29T21:13:24.230Z,8.10
2019-03-29T21:15:54.517Z,8.73
2019-03-29T21:18:24.793Z,8.47
2019-03-29T21:21:04.816Z,8.50
2019-03-29T21:23:35.177Z,9.13
2019-03-29T21:26:05.845Z,8.70
2019-03-29T21:28:36.369Z,9.10
2019-03-29T21:31:07.025Z,8.83
2019-03-29T21:33:40.592Z,8.43
2019-03-29T21:36:09.885Z,8.90
2019-03-29T21:38:40.465Z,8.23
2019-03-29T21:41:10.861Z,9.47
2019-03-29T21:43:41.238Z,9.30
2019-03-29T21:46:11.727Z,8.93
2019-03-29T21:48:42.335Z,9.37
2019-03-29T21:51:14.099Z,8.20
2019-03-29T21:53:44.863Z,7.20
2019-03-29T21:56:17.924Z,8.27
2019-03-29T21:58:48.362Z,8.60
2019-03-29T22:01:18.888Z,9.23
2019-03-29T22:04:08.140Z,8.80
2019-03-29T22:06:39.836Z,8.13
2019-03-29T22:09:10.181Z,8.97
2019-03-29T22:11:40.885Z,9.30
2019-03-29T22:14:11.241Z,8.97
2019-03-29T22:16:41.613Z,9.47
2019-03-29T22:19:11.885Z,8.83
2019-03-29T22:21:42.297Z,8.47
2019-03-29T22:24:12.587Z,9.83
2019-03-29T22:26:42.880Z,8.73
2019-03-29T22:29:13.325Z,8.23
2019-03-29T22:31:44.032Z,8.13
2019-03-29T22:34:14.325Z,9.37
2019-03-29T22:36:44.618Z,8.43
2019-03-29T22:39:15.357Z,9.00
2019-03-29T22:41:45.729Z,8.30
2019-03-29T22:44:16.085Z,9.63
2019-03-29T22:46:46.438Z,8.10
2019-03-29T22:49:16.824Z,7.60
2019-03-29T22:51:47.186Z,8.73
2019-03-29T22:54:17.476Z,8.53
2019-03-29T22:56:47.777Z,10.63
2019-03-29T22:59:18.481Z,8.50
2019-03-29T23:01:49.115Z,8.47
2019-03-29T23:04:19.773Z,9.37
2019-03-29T23:06:50.428Z,8.43
2019-03-29T23:09:21.186Z,8.47
2019-03-29T23:11:53.157Z,8.33
2019-03-29T23:14:23.609Z,7.93
2019-03-29T23:16:53.968Z,8.10
2019-03-29T23:19:24.673Z,9.20
2019-03-29T23:21:55.136Z,8.00
2019-03-29T23:24:25.416Z,8.30
2019-03-29T23:26:55.755Z,9.13
2019-03-29T23:29:26.263Z,8.77
2019-03-29T23:31:56.766Z,8.80
2019-03-29T23:34:27.216Z,8.10
2019-03-29T23:36:57.624Z,8.47
2019-03-29T23:39:28.197Z,9.00
2019-03-29T23:41:58.516Z,9.37
2019-03-29T23:44:29.779Z,8.57
2019-03-29T23:47:00.164Z,8.73
2019-03-29T23:49:30.542Z,8.47
2019-03-29T23:52:00.818Z,7.83
2019-03-29T23:54:31.196Z,7.77
2019-03-29T23:57:01.569Z,9.33
2019-03-29T23:59:32.007Z,8.33
